Time;durP1;ratioP1;P1;durP2;ratioP2;P2;SDS_P1;SDS_P2;PMS_P1;PMS_P2;Temp;Humidity;BMP_temperature;BMP_pressure;BME280_temperature;BME280_humidity;BME280_pressure;Samples;Min_cycle;Max_cycle;Signal;HPM_P1;HPM_P2
2022/04/13 00:01:14;;;;;;;8.70;4.43;;;;;;;12.60;46.04;100047.84;8600949;33;20596;-75
2022/04/13 00:06:17;;;;;;;6.32;4.43;;;;;;;12.64;46.12;100053.78;8601834;33;20493;-75
2022/04/13 00:11:20;;;;;;;5.38;3.80;;;;;;;12.62;45.71;100058.50;8603842;33;21090;-74
2022/04/13 00:16:25;;;;;;;4.97;3.80;;;;;;;12.62;45.86;100051.25;8605615;33;20408;-74
2022/04/13 00:21:28;;;;;;;4.32;3.53;;;;;;;12.62;45.58;100055.78;8605067;33;20236;-75
2022/04/13 00:26:31;;;;;;;5.47;4.05;;;;;;;12.51;45.87;100051.41;8604209;33;21232;-75
2022/04/13 00:31:35;;;;;;;6.72;4.32;;;;;;;12.44;45.99;100059.22;8600832;33;21061;-74
2022/04/13 00:36:39;;;;;;;5.28;3.95;;;;;;;12.48;46.29;100049.00;8599984;33;20863;-74
2022/04/13 00:41:42;;;;;;;4.35;3.58;;;;;;;12.49;46.02;100051.56;8598697;33;20672;-74
2022/04/13 00:46:46;;;;;;;4.30;3.30;;;;;;;12.49;46.15;100048.00;8597803;33;20158;-74
2022/04/13 00:51:49;;;;;;;3.83;3.10;;;;;;;12.51;46.20;100046.03;8599767;33;20481;-74
2022/04/13 00:56:54;;;;;;;3.97;3.45;;;;;;;12.58;45.95;100047.97;8599401;33;21047;-75
2022/04/13 01:01:59;;;;;;;5.25;3.58;;;;;;;12.62;46.01;100045.88;8605607;33;20552;-74
2022/04/13 01:07:05;;;;;;;5.30;3.75;;;;;;;12.57;46.37;100046.28;8605027;33;20993;-74
2022/04/13 01:12:09;;;;;;;3.42;3.13;;;;;;;12.59;46.39;100055.09;8603669;33;20403;-75
2022/04/13 01:17:14;;;;;;;3.22;2.80;;;;;;;12.60;46.48;100054.06;8596056;33;20439;-74
2022/04/13 01:22:20;;;;;;;5.30;3.45;;;;;;;12.53;46.66;100068.28;8597958;33;20182;-74
2022/04/13 01:27:23;;;;;;;4.85;3.28;;;;;;;12.41;47.00;100064.91;8600297;33;20222;-76
2022/04/13 01:32:26;;;;;;;7.47;3.88;;;;;;;12.36;47.08;100076.09;8601926;33;20766;-74
2022/04/13 01:37:31;;;;;;;5.18;3.80;;;;;;;12.31;47.00;100083.78;8602400;33;21188;-74
2022/04/13 01:42:34;;;;;;;3.85;3.15;;;;;;;12.26;47.04;100094.09;8602923;33;20128;-74
2022/04/13 01:47:37;;;;;;;4.57;3.13;;;;;;;12.19;47.35;100081.34;8601602;33;21182;-74
2022/04/13 01:52:41;;;;;;;3.88;2.90;;;;;;;12.14;47.25;100084.44;8602498;33;21412;-74
2022/04/13 01:57:44;;;;;;;5.25;3.90;;;;;;;12.06;47.28;100092.38;8599342;33;21077;-74
2022/04/13 02:02:47;;;;;;;3.53;3.15;;;;;;;12.01;47.49;100103.56;8601632;33;20414;-74
2022/04/13 02:07:52;;;;;;;4.47;3.38;;;;;;;12.00;47.44;100103.72;8598926;33;20465;-74
2022/04/13 02:12:55;;;;;;;4.10;3.17;;;;;;;11.91;47.82;100105.41;8604771;33;20530;-74
2022/04/13 02:17:59;;;;;;;3.78;3.25;;;;;;;11.88;48.09;100105.69;8601782;33;20443;-74
2022/04/13 02:23:03;;;;;;;3.47;3.15;;;;;;;11.82;48.30;100104.41;8602171;33;20465;-74
2022/04/13 02:28:08;;;;;;;3.75;3.33;;;;;;;11.81;48.26;100104.53;8604064;33;20277;-74
2022/04/13 02:33:11;;;;;;;4.82;3.53;;;;;;;11.84;48.14;100101.56;8608867;33;20405;-74
2022/04/13 02:38:16;;;;;;;4.45;3.22;;;;;;;11.82;48.28;100106.22;8604245;33;20427;-74
2022/04/13 02:43:20;;;;;;;3.95;3.00;;;;;;;11.92;47.96;100117.84;8578667;33;20424;-74
2022/04/13 02:48:23;;;;;;;3.58;3.05;;;;;;;11.89;47.94;100102.00;8598886;33;20149;-75
2022/04/13 02:53:30;;;;;;;4.32;3.30;;;;;;;11.92;47.59;100107.09;8594566;33;20368;-74
2022/04/13 02:58:33;;;;;;;4.82;3.13;;;;;;;11.93;47.69;100106.97;8595864;33;20148;-75
2022/04/13 03:03:36;;;;;;;3.63;3.13;;;;;;;11.90;47.69;100117.16;8594903;33;20183;-74
2022/04/13 03:08:40;;;;;;;4.60;3.40;;;;;;;11.85;47.97;100114.88;8592654;33;20189;-74
2022/04/13 03:13:43;;;;;;;4.45;3.25;;;;;;;11.79;48.05;100125.34;8595659;33;20398;-74
2022/04/13 03:18:47;;;;;;;4.78;3.25;;;;;;;11.76;47.92;100113.00;8593638;33;20391;-74
2022/04/13 03:23:51;;;;;;;6.60;3.28;;;;;;;11.75;48.17;100113.16;8596189;33;20186;-75
2022/04/13 03:28:54;;;;;;;4.13;3.58;;;;;;;11.68;47.98;100112.84;8598828;33;20430;-75
2022/04/13 03:33:57;;;;;;;5.93;3.90;;;;;;;11.70;48.41;100114.41;8603106;33;20480;-75
2022/04/13 03:39:01;;;;;;;4.10;3.47;;;;;;;11.67;48.09;100113.84;8612762;33;20179;-75
2022/04/13 03:44:06;;;;;;;8.95;3.58;;;;;;;11.58;48.31;100115.53;8617883;33;20904;-74
2022/04/13 03:49:09;;;;;;;4.50;3.72;;;;;;;11.62;48.09;100111.56;8617835;33;20183;-75
2022/04/13 03:54:13;;;;;;;8.65;3.47;;;;;;;11.57;47.76;100118.34;8615244;33;20732;-75
2022/04/13 03:59:18;;;;;;;3.67;3.22;;;;;;;11.40;48.77;100104.56;8607045;33;21034;-75
2022/04/13 04:04:21;;;;;;;3.90;3.33;;;;;;;11.31;48.47;100124.22;8608665;33;20404;-75
2022/04/13 04:09:26;;;;;;;7.07;3.25;;;;;;;11.35;48.75;100119.41;8603102;33;20504;-75
2022/04/13 04:14:29;;;;;;;6.18;3.70;;;;;;;11.31;48.93;100126.91;8602168;33;20906;-75
2022/04/13 04:19:32;;;;;;;5.68;3.40;;;;;;;11.30;48.95;100137.78;8603359;33;20170;-75
2022/04/13 04:24:36;;;;;;;5.50;3.30;;;;;;;11.28;48.80;100154.91;8603586;33;21590;-75
2022/04/13 04:29:39;;;;;;;9.68;3.92;;;;;;;11.21;49.09;100153.75;8602155;33;20147;-75
2022/04/13 04:34:42;;;;;;;5.57;3.40;;;;;;;11.17;49.22;100159.53;8598008;33;20183;-75
2022/04/13 04:39:46;;;;;;;4.97;3.53;;;;;;;11.12;49.22;100151.88;8596927;33;20633;-75
2022/04/13 04:44:49;;;;;;;7.25;3.03;;;;;;;11.06;49.75;100155.91;8596717;33;20964;-75
2022/04/13 04:49:53;;;;;;;4.93;3.50;;;;;;;11.07;49.49;100164.81;8596488;33;20414;-75
2022/04/13 04:54:59;;;;;;;4.53;3.53;;;;;;;11.06;49.53;100157.75;8596527;33;20235;-75
2022/04/13 05:00:04;;;;;;;6.47;3.80;;;;;;;11.06;49.47;100169.34;8596587;33;20901;-75
2022/04/13 05:05:09;;;;;;;5.13;3.40;;;;;;;11.06;49.62;100180.09;8588201;33;20456;-75
2022/04/13 05:10:14;;;;;;;6.25;3.83;;;;;;;11.06;49.59;100180.09;8588465;33;20412;-75
2022/04/13 05:15:17;;;;;;;7.57;4.60;;;;;;;11.01;49.60;100176.94;8594175;33;20419;-75
2022/04/13 05:20:21;;;;;;;6.57;3.60;;;;;;;11.04;50.05;100191.97;8600589;33;20422;-75
2022/04/13 05:25:25;;;;;;;5.03;3.40;;;;;;;11.08;49.76;100195.22;8607807;33;20147;-75
2022/04/13 05:30:28;;;;;;;5.93;4.50;;;;;;;11.19;50.03;100192.50;8603606;33;20864;-75
2022/04/13 05:35:31;;;;;;;6.63;3.95;;;;;;;11.34;49.41;100201.09;8574167;33;21004;-75
2022/04/13 05:40:36;;;;;;;5.57;3.83;;;;;;;11.51;49.41;100216.59;8596354;33;20414;-75
2022/04/13 05:45:39;;;;;;;6.75;4.70;;;;;;;11.79;49.04;100215.00;8596802;33;20143;-75
2022/04/13 05:50:42;;;;;;;5.82;3.90;;;;;;;12.05;48.70;100212.66;8595114;33;20132;-75
2022/04/13 05:55:46;;;;;;;4.80;3.75;;;;;;;12.19;48.84;100221.34;8595073;33;20193;-75
2022/04/13 06:00:49;;;;;;;5.45;3.80;;;;;;;12.29;48.50;100223.09;8570473;33;20478;-74
2022/04/13 06:05:53;;;;;;;4.90;3.70;;;;;;;12.40;48.28;100222.13;8575211;33;20905;-74
2022/04/13 06:10:57;;;;;;;5.82;3.90;;;;;;;12.47;48.25;100234.03;8599143;33;20848;-74
2022/04/13 06:16:00;;;;;;;5.03;4.18;;;;;;;12.58;48.23;100238.44;8601412;33;20167;-74
2022/04/13 06:21:03;;;;;;;7.43;4.50;;;;;;;12.67;48.15;100243.00;8605164;33;20885;-74
2022/04/13 06:26:08;;;;;;;5.20;3.90;;;;;;;12.83;47.91;100242.41;8608105;33;20436;-75
2022/04/13 06:31:11;;;;;;;7.65;4.20;;;;;;;12.81;47.37;100249.81;8609165;33;21130;-74
2022/04/13 06:36:14;;;;;;;7.53;4.38;;;;;;;12.96;47.66;100255.59;8610548;33;20478;-74
2022/04/13 06:41:21;;;;;;;7.47;4.93;;;;;;;13.11;47.71;100264.97;8586304;33;21048;-74
2022/04/13 06:46:24;;;;;;;5.18;4.07;;;;;;;13.28;47.51;100257.97;8605296;33;20873;-75
2022/04/13 06:51:27;;;;;;;5.18;3.35;;;;;;;13.42;46.88;100264.81;8605082;33;20198;-74
2022/04/13 06:56:32;;;;;;;4.43;3.38;;;;;;;13.55;47.12;100268.03;8603436;33;20730;-74
2022/04/13 07:01:35;;;;;;;7.82;4.22;;;;;;;13.75;46.93;100274.22;8598277;33;21074;-74
2022/04/13 07:06:38;;;;;;;5.72;3.72;;;;;;;13.85;47.44;100279.56;8592046;33;20412;-74
2022/04/13 07:11:47;;;;;;;7.90;4.32;;;;;;;14.01;47.34;100289.72;8596628;33;20506;-74
2022/04/13 07:16:50;;;;;;;8.20;4.07;;;;;;;14.11;47.32;100279.75;8599283;33;20242;-75
2022/04/13 07:21:53;;;;;;;6.82;4.03;;;;;;;14.28;47.93;100292.44;8597764;33;21136;-74
2022/04/13 07:27:06;;;;;;;6.95;4.38;;;;;;;14.34;47.61;100290.97;8596828;33;20135;-74
2022/04/13 07:32:09;;;;;;;7.35;4.90;;;;;;;14.64;47.18;100299.78;8594028;33;20234;-74
2022/04/13 07:37:12;;;;;;;9.00;4.20;;;;;;;15.04;46.56;100296.63;8593819;33;20193;-74
2022/04/13 07:42:22;;;;;;;7.80;4.45;;;;;;;15.47;46.03;100311.25;8595694;33;20230;-75
2022/04/13 07:47:26;;;;;;;6.85;4.55;;;;;;;16.13;45.63;100310.59;8591663;33;21187;-74
2022/04/13 07:52:34;;;;;;;8.77;4.70;;;;;;;16.36;44.15;100316.31;8593851;33;20138;-75
2022/04/13 07:57:38;;;;;;;5.95;4.05;;;;;;;16.40;44.82;100318.69;8593970;33;20186;-75
2022/04/13 08:02:42;;;;;;;8.07;4.90;;;;;;;16.44;44.72;100311.94;8597620;33;20426;-75
2022/04/13 08:07:46;;;;;;;5.80;4.40;;;;;;;16.73;44.22;100323.22;8594696;33;20207;-75
2022/04/13 08:12:50;;;;;;;6.55;4.28;;;;;;;17.00;43.20;100330.22;8601184;33;20136;-75
2022/04/13 08:17:53;;;;;;;5.25;4.50;;;;;;;17.11;42.82;100337.16;8602671;33;20418;-75
2022/04/13 08:22:57;;;;;;;8.13;4.45;;;;;;;17.28;44.16;100332.66;8600126;33;20996;-75
2022/04/13 08:28:02;;;;;;;5.18;3.90;;;;;;;17.83;43.46;100337.34;8595669;33;20489;-75
2022/04/13 08:33:05;;;;;;;5.32;4.47;;;;;;;18.26;41.33;100339.78;8599994;33;20937;-75
2022/04/13 08:38:08;;;;;;;5.30;4.57;;;;;;;18.87;41.18;100340.91;8596866;33;20157;-75
2022/04/13 08:43:14;;;;;;;5.35;4.38;;;;;;;19.29;40.49;100345.00;8606773;33;20709;-75
2022/04/13 08:48:22;;;;;;;8.25;5.07;;;;;;;19.37;39.44;100346.81;8606858;33;20236;-75
2022/04/13 08:53:29;;;;;;;9.43;5.05;;;;;;;19.57;39.71;100350.75;8611230;33;20207;-75
2022/04/13 08:58:46;;;;;;;7.70;5.22;;;;;;;20.23;39.53;100342.72;8599497;33;20428;-75
2022/04/13 09:03:52;;;;;;;8.70;4.75;;;;;;;20.67;38.54;100352.78;8599310;33;20428;-75
2022/04/13 09:08:59;;;;;;;10.32;4.55;;;;;;;20.76;38.66;100348.91;8598736;33;20446;-75
2022/04/13 09:14:04;;;;;;;7.32;4.68;;;;;;;20.57;38.14;100354.97;8597207;33;21162;-75
2022/04/13 09:19:08;;;;;;;7.57;4.65;;;;;;;20.76;37.93;100358.97;8599279;33;20413;-75
2022/04/13 09:24:14;;;;;;;7.70;5.22;;;;;;;20.94;37.59;100359.41;8601999;33;20320;-75
2022/04/13 09:29:19;;;;;;;8.35;5.30;;;;;;;21.17;37.79;100366.59;8599589;33;20420;-75
2022/04/13 09:34:22;;;;;;;9.88;5.15;;;;;;;20.99;37.83;100362.38;8601747;33;20983;-75
2022/04/13 09:39:27;;;;;;;9.05;4.47;;;;;;;20.72;38.49;100374.03;8602817;33;20273;-75
2022/04/13 09:44:33;;;;;;;8.07;5.10;;;;;;;21.22;38.05;100367.69;8609602;33;20705;-75
2022/04/13 09:49:36;;;;;;;11.30;5.78;;;;;;;21.52;36.92;100372.19;8609945;33;20196;-75
2022/04/13 09:54:43;;;;;;;8.98;5.20;;;;;;;21.87;36.16;100373.97;8611108;33;20425;-75
2022/04/13 09:59:55;;;;;;;8.30;5.20;;;;;;;21.80;37.01;100373.09;8617764;33;20417;-75
2022/04/13 10:04:58;;;;;;;10.10;5.50;;;;;;;21.87;36.89;100371.25;8624533;33;20414;-75
2022/04/13 10:10:01;;;;;;;9.30;5.93;;;;;;;22.53;36.99;100375.47;8636380;33;20439;-78
2022/04/13 10:15:09;;;;;;;12.43;6.00;;;;;;;23.32;36.50;100361.19;8644466;33;20431;-78
2022/04/13 10:20:13;;;;;;;12.55;5.60;;;;;;;23.23;35.92;100362.47;8637925;33;20467;-79
2022/04/13 10:25:25;;;;;;;7.22;4.93;;;;;;;22.64;37.54;100374.88;8624675;33;20692;-79
2022/04/13 10:30:32;;;;;;;8.38;4.95;;;;;;;23.25;36.56;100364.97;8615998;33;20422;-78
2022/04/13 10:35:38;;;;;;;6.00;4.63;;;;;;;23.47;35.55;100368.38;8628118;33;20641;-79
2022/04/13 10:40:43;;;;;;;13.07;5.13;;;;;;;21.86;36.31;100364.09;8613993;33;20218;-76
2022/04/13 10:45:48;;;;;;;7.32;4.38;;;;;;;21.68;38.54;100369.16;8612328;33;20181;-77
2022/04/13 10:50:55;;;;;;;9.23;5.03;;;;;;;22.30;37.01;100360.16;8612927;33;20441;-79
2022/04/13 10:56:02;;;;;;;7.63;4.30;;;;;;;23.29;36.52;100364.38;8608081;33;20140;-77
2022/04/13 11:01:11;;;;;;;8.80;4.50;;;;;;;23.14;35.52;100358.22;8608568;33;20221;-78
2022/04/13 11:06:15;;;;;;;5.60;3.78;;;;;;;21.66;37.41;100363.88;8581547;33;20183;-78
2022/04/13 11:11:22;;;;;;;7.18;4.40;;;;;;;23.18;35.91;100365.81;8607148;33;20549;-79
2022/04/13 11:16:28;;;;;;;8.05;3.92;;;;;;;24.22;34.51;100356.13;8605030;33;20139;-79
2022/04/13 11:21:32;;;;;;;6.53;3.47;;;;;;;23.79;35.23;100355.75;8604129;33;21376;-79
2022/04/13 11:26:56;;;;;;;9.63;3.30;;;;;;;24.83;33.91;100360.34;8605716;33;20190;-78
2022/04/13 11:32:15;;;;;;;4.55;3.72;;;;;;;24.63;34.20;100362.31;8604732;33;20861;-78
2022/04/13 11:37:21;;;;;;;6.72;3.28;;;;;;;24.87;33.21;100366.22;8609949;33;20567;-79
2022/04/13 11:42:50;;;;;;;9.90;3.30;;;;;;;25.25;33.94;100365.41;8609604;33;20577;-79
2022/04/13 11:47:58;;;;;;;6.60;3.20;;;;;;;25.52;33.87;100363.31;8608700;33;20577;-79
2022/04/13 11:53:06;;;;;;;6.85;2.90;;;;;;;25.99;33.69;100372.03;8608948;33;20513;-79
2022/04/13 11:58:21;;;;;;;7.95;3.85;;;;;;;25.08;34.15;100376.94;8603687;33;20491;-79
2022/04/13 12:03:28;;;;;;;8.95;4.35;;;;;;;26.58;31.80;100369.72;8610860;33;20158;-78
2022/04/13 12:08:39;;;;;;;6.75;4.00;;;;;;;27.33;30.72;100369.34;8611275;33;20540;-78
2022/04/13 12:13:49;;;;;;;8.07;3.45;;;;;;;26.87;31.50;100377.19;8601104;33;20529;-79
2022/04/13 12:18:56;;;;;;;9.85;4.10;;;;;;;25.61;33.92;100367.47;8604371;33;20180;-79
2022/04/13 12:24:02;;;;;;;8.07;4.05;;;;;;;24.34;35.65;100372.75;8594800;33;20879;-78
2022/04/13 12:29:13;;;;;;;6.57;3.38;;;;;;;26.60;33.04;100373.91;8607010;33;20419;-78
2022/04/13 12:34:19;;;;;;;10.88;4.18;;;;;;;28.39;30.83;100375.81;8609464;33;20175;-78
2022/04/13 12:39:25;;;;;;;6.93;3.95;;;;;;;27.76;31.81;100360.81;8606875;33;20196;-79
2022/04/13 12:44:29;;;;;;;8.75;4.10;;;;;;;27.52;31.30;100370.13;8609144;33;20416;-79
2022/04/13 12:49:36;;;;;;;6.85;4.05;;;;;;;25.67;33.79;100368.50;8606830;33;20446;-78
2022/04/13 12:54:41;;;;;;;7.03;4.10;;;;;;;25.90;33.97;100376.16;8603387;33;20151;-79
2022/04/13 12:59:44;;;;;;;8.38;3.53;;;;;;;25.44;34.23;100375.41;8582460;33;20414;-78
2022/04/13 13:04:49;;;;;;;8.45;3.70;;;;;;;24.79;35.08;100371.97;8594322;33;20438;-78
2022/04/13 13:09:55;;;;;;;7.50;3.72;;;;;;;23.23;38.43;100369.81;8612697;33;20456;-77
2022/04/13 13:14:59;;;;;;;8.65;3.58;;;;;;;23.69;37.28;100389.03;8614548;33;20420;-76
2022/04/13 13:20:12;;;;;;;8.63;3.40;;;;;;;24.14;37.49;100386.53;8606430;33;20420;-77
2022/04/13 13:25:16;;;;;;;8.25;4.03;;;;;;;25.49;35.70;100378.34;8607214;33;21085;-77
2022/04/13 13:30:21;;;;;;;8.20;4.80;;;;;;;25.91;34.87;100386.06;8606610;33;20411;-78
2022/04/13 13:35:29;;;;;;;8.02;4.22;;;;;;;26.33;34.86;100391.81;8613967;33;20243;-78
2022/04/13 13:40:42;;;;;;;10.65;4.80;;;;;;;25.15;36.08;100393.38;8622778;33;20431;-78
2022/04/13 13:45:48;;;;;;;8.43;5.68;;;;;;;23.80;37.64;100382.97;8625750;33;21103;-77
2022/04/13 13:50:54;;;;;;;9.15;5.60;;;;;;;23.28;39.07;100391.97;8621251;33;20237;-77
2022/04/13 13:55:58;;;;;;;12.13;5.50;;;;;;;24.72;36.10;100389.34;8623975;33;20521;-77
2022/04/13 14:01:01;;;;;;;8.38;4.40;;;;;;;24.86;37.59;100395.63;8626085;33;20175;-78
2022/04/13 14:06:06;;;;;;;11.77;5.45;;;;;;;24.46;36.29;100389.41;8626670;33;21891;-77
2022/04/13 14:11:10;;;;;;;6.95;5.40;;;;;;;23.48;37.56;100397.47;8595227;33;20516;-77
2022/04/13 14:16:13;;;;;;;9.55;5.18;;;;;;;22.88;40.01;100400.06;8619911;33;20954;-77
2022/04/13 14:21:18;;;;;;;10.32;5.55;;;;;;;23.04;39.12;100396.06;8619775;33;20409;-75
2022/04/13 14:26:22;;;;;;;9.02;6.00;;;;;;;23.08;38.87;100391.91;8619727;33;20461;-76
2022/04/13 14:31:25;;;;;;;12.30;6.60;;;;;;;23.16;40.20;100384.34;8612886;33;20143;-75
2022/04/13 14:36:30;;;;;;;10.90;7.57;;;;;;;22.85;39.57;100381.31;8614174;33;20424;-77
2022/04/13 14:41:33;;;;;;;15.68;7.57;;;;;;;23.16;40.10;100378.88;8614661;33;20153;-76
2022/04/13 14:46:36;;;;;;;14.75;8.43;;;;;;;22.17;41.21;100383.88;8607872;33;20388;-77
2022/04/13 14:51:41;;;;;;;13.30;7.40;;;;;;;22.80;41.75;100389.28;8606068;33;20455;-76
2022/04/13 14:56:44;;;;;;;10.52;6.97;;;;;;;22.84;41.18;100390.53;8604178;33;20516;-76
2022/04/13 15:01:47;;;;;;;13.43;7.63;;;;;;;22.81;41.80;100390.97;8579646;33;20451;-77
2022/04/13 15:06:52;;;;;;;12.38;7.97;;;;;;;23.37;40.89;100386.09;8603405;33;21134;-76
2022/04/13 15:11:55;;;;;;;12.50;8.73;;;;;;;24.19;38.90;100385.88;8600768;33;20179;-77
2022/04/13 15:16:58;;;;;;;16.30;9.90;;;;;;;23.69;39.33;100393.69;8600796;33;21139;-76
2022/04/13 15:22:03;;;;;;;12.95;9.43;;;;;;;22.83;40.91;100395.19;8607033;33;20456;-77
2022/04/13 15:27:07;;;;;;;16.92;9.60;;;;;;;22.43;41.44;100410.53;8606203;33;20948;-76
2022/04/13 15:32:10;;;;;;;15.07;8.75;;;;;;;22.55;42.77;100412.53;8609356;33;20148;-76
2022/04/13 15:37:14;;;;;;;13.23;8.25;;;;;;;22.43;41.83;100405.94;8606830;33;20949;-76
2022/04/13 15:42:23;;;;;;;15.10;8.65;;;;;;;22.71;41.21;100403.16;8607210;33;20457;-77
2022/04/13 15:47:27;;;;;;;9.45;6.13;;;;;;;22.46;41.66;100413.75;8605724;33;21303;-76
2022/04/13 15:52:33;;;;;;;5.20;3.90;;;;;;;22.51;43.18;100418.59;8608437;33;20555;-77
2022/04/13 15:57:36;;;;;;;5.18;3.47;;;;;;;22.32;41.58;100411.94;8605195;33;20150;-77
2022/04/13 16:02:59;;;;;;;7.78;3.70;;;;;;;21.98;42.68;100418.25;8607211;33;20788;-77
2022/04/13 16:08:05;;;;;;;8.02;3.67;;;;;;;21.60;42.90;100413.88;8604762;33;20177;-76
2022/04/13 16:13:09;;;;;;;3.42;3.13;;;;;;;21.49;43.09;100428.06;8604591;33;20179;-76
2022/04/13 16:18:12;;;;;;;4.18;3.25;;;;;;;21.27;43.61;100427.22;8605946;33;20968;-75
2022/04/13 16:23:17;;;;;;;7.88;3.08;;;;;;;21.05;44.30;100434.53;8604749;33;20517;-74
2022/04/13 16:28:20;;;;;;;5.35;3.22;;;;;;;20.47;45.96;100439.84;8605283;33;20182;-73
2022/04/13 16:33:23;;;;;;;6.07;3.42;;;;;;;20.09;45.26;100439.84;8597377;33;20465;-74
2022/04/13 16:38:31;;;;;;;6.20;2.83;;;;;;;20.30;46.55;100441.88;8596219;33;20460;-73
2022/04/13 16:43:37;;;;;;;6.38;2.50;;;;;;;19.88;47.27;100442.44;8596971;33;20576;-75
2022/04/13 16:48:40;;;;;;;8.85;3.85;;;;;;;19.52;47.27;100443.03;8592088;33;20146;-73
2022/04/13 16:53:45;;;;;;;8.20;4.97;;;;;;;19.52;48.94;100447.66;8604558;33;20269;-73
2022/04/13 16:58:48;;;;;;;8.95;4.68;;;;;;;19.26;49.87;100454.31;8599941;33;20549;-74
2022/04/13 17:03:51;;;;;;;7.85;4.50;;;;;;;19.38;50.43;100452.84;8601402;33;20410;-73
2022/04/13 17:08:56;;;;;;;7.00;5.15;;;;;;;18.89;51.46;100464.00;8601498;33;20425;-74
2022/04/13 17:13:59;;;;;;;11.65;5.28;;;;;;;19.14;51.14;100466.59;8604533;33;20478;-73
2022/04/13 17:19:02;;;;;;;9.25;4.85;;;;;;;18.62;52.89;100478.03;8607626;33;20509;-74
2022/04/13 17:24:09;;;;;;;5.78;4.38;;;;;;;18.75;52.56;100486.47;8610134;33;20419;-74
2022/04/13 17:29:12;;;;;;;7.72;4.75;;;;;;;18.69;52.43;100485.31;8620634;33;20181;-74
2022/04/13 17:34:15;;;;;;;7.13;4.15;;;;;;;18.64;52.71;100478.69;8626918;33;21130;-74
2022/04/13 17:39:20;;;;;;;7.93;5.00;;;;;;;18.48;53.52;100466.00;8621654;33;20465;-74
2022/04/13 17:44:23;;;;;;;6.05;4.35;;;;;;;18.22;59.00;100491.53;8622040;33;20432;-75
2022/04/13 17:49:26;;;;;;;6.78;4.75;;;;;;;17.70;58.58;100521.75;8621732;33;21022;-74
2022/04/13 17:54:31;;;;;;;8.27;5.50;;;;;;;17.43;60.80;100521.00;8622662;33;20544;-74
2022/04/13 17:59:35;;;;;;;10.52;5.72;;;;;;;17.70;60.53;100516.31;8616988;33;20167;-74
2022/04/13 18:04:39;;;;;;;8.65;5.50;;;;;;;17.69;59.63;100536.34;8590257;33;20933;-74
2022/04/13 18:09:43;;;;;;;11.57;5.63;;;;;;;17.51;62.00;100532.91;8619054;33;20134;-75
2022/04/13 18:14:46;;;;;;;8.63;6.50;;;;;;;17.38;62.04;100498.06;8621101;33;20423;-74
2022/04/13 18:19:49;;;;;;;9.38;6.30;;;;;;;16.98;67.46;100515.91;8621306;33;20401;-74
2022/04/13 18:24:54;;;;;;;10.00;6.82;;;;;;;16.52;70.63;100531.59;8622761;33;20425;-75
2022/04/13 18:29:57;;;;;;;16.38;8.23;;;;;;;16.21;71.93;100556.41;8620291;33;20148;-75
2022/04/13 18:35:01;;;;;;;10.82;7.28;;;;;;;16.00;72.41;100561.31;8614454;33;21083;-74
2022/04/13 18:40:10;;;;;;;12.25;8.15;;;;;;;15.89;74.80;100570.53;8615009;33;21167;-74
2022/04/13 18:45:13;;;;;;;13.52;8.05;;;;;;;15.76;74.82;100560.06;8586160;33;20619;-74
2022/04/13 18:50:17;;;;;;;14.05;9.70;;;;;;;14.66;77.43;100597.88;8612835;33;20148;-73
2022/04/13 18:55:22;;;;;;;15.30;9.32;;;;;;;14.76;82.05;100599.56;8610043;33;20301;-74
2022/04/13 19:00:27;;;;;;;17.75;10.63;;;;;;;14.74;80.71;100589.88;8606508;33;20193;-74
2022/04/13 19:05:30;;;;;;;13.73;10.27;;;;;;;14.55;80.76;100605.16;8605570;33;20433;-74
2022/04/13 19:10:35;;;;;;;14.55;9.95;;;;;;;14.70;82.59;100602.84;8604134;33;20554;-73
2022/04/13 19:15:39;;;;;;;15.05;10.20;;;;;;;14.74;82.00;100596.16;8600952;33;20607;-73
2022/04/13 19:20:42;;;;;;;17.70;10.23;;;;;;;14.85;82.70;100605.94;8579919;33;20236;-73
2022/04/13 19:25:47;;;;;;;20.42;10.00;;;;;;;14.88;81.23;100619.16;8604777;33;20407;-73
2022/04/13 19:30:53;;;;;;;12.68;9.27;;;;;;;14.79;78.42;100625.47;8605870;33;20427;-73
2022/04/13 19:35:56;;;;;;;15.18;8.93;;;;;;;14.91;78.79;100637.78;8609744;33;20190;-73
2022/04/13 19:41:00;;;;;;;15.35;8.52;;;;;;;15.02;78.50;100634.06;8604628;33;20168;-74
2022/04/13 19:46:03;;;;;;;12.88;9.38;;;;;;;15.03;78.73;100633.09;8602780;33;20516;-74
2022/04/13 19:51:08;;;;;;;14.88;9.15;;;;;;;14.95;76.99;100655.47;8605154;33;20349;-74
2022/04/13 19:56:12;;;;;;;16.33;10.88;;;;;;;14.85;77.33;100656.47;8604048;33;20200;-74
2022/04/13 20:01:15;;;;;;;12.50;8.65;;;;;;;14.76;78.80;100658.19;8605119;33;22056;-74
2022/04/13 20:06:18;;;;;;;14.25;9.60;;;;;;;14.73;79.12;100662.06;8603559;33;20439;-74
2022/04/13 20:11:23;;;;;;;15.80;9.57;;;;;;;14.67;78.94;100651.78;8604745;33;20397;-74
2022/04/13 20:16:26;;;;;;;12.95;9.98;;;;;;;14.66;78.00;100669.03;8604595;33;20439;-73
2022/04/13 20:21:30;;;;;;;14.38;8.27;;;;;;;14.61;74.17;100676.69;8604443;33;20849;-73
2022/04/13 20:26:34;;;;;;;14.43;8.48;;;;;;;14.66;73.86;100687.94;8602088;33;20750;-73
2022/04/13 20:31:37;;;;;;;16.20;9.90;;;;;;;14.71;73.97;100690.22;8604026;33;21001;-73
2022/04/13 20:36:41;;;;;;;12.98;8.43;;;;;;;14.69;74.46;100687.66;8600191;33;20226;-74
2022/04/13 20:41:46;;;;;;;13.93;8.55;;;;;;;14.68;73.61;100685.97;8595438;33;20496;-73
2022/04/13 20:46:49;;;;;;;17.27;9.18;;;;;;;14.73;72.47;100689.09;8598948;33;20151;-73
2022/04/13 20:51:53;;;;;;;11.30;8.70;;;;;;;14.78;71.86;100697.63;8602057;33;20407;-73
2022/04/13 20:56:57;;;;;;;12.70;8.40;;;;;;;14.57;70.13;100699.63;8597205;33;20134;-73
2022/04/13 21:02:00;;;;;;;13.13;7.82;;;;;;;14.53;69.80;100715.25;8573351;33;20427;-73
2022/04/13 21:07:04;;;;;;;13.77;7.80;;;;;;;14.55;69.23;100698.91;8597668;33;21200;-73
2022/04/13 21:12:10;;;;;;;12.07;7.10;;;;;;;14.52;69.11;100700.03;8598255;33;20281;-73
2022/04/13 21:17:13;;;;;;;13.27;6.97;;;;;;;14.44;68.84;100705.31;8600480;33;20139;-73
2022/04/13 21:22:16;;;;;;;11.30;6.90;;;;;;;14.37;68.37;100714.94;8603016;33;20182;-73
2022/04/13 21:27:22;;;;;;;11.23;6.25;;;;;;;14.25;67.70;100714.22;8602646;33;20172;-73
2022/04/13 21:32:25;;;;;;;10.80;6.47;;;;;;;14.27;67.16;100727.59;8603692;33;20419;-73
2022/04/13 21:37:28;;;;;;;10.85;5.50;;;;;;;14.23;66.33;100728.84;8601262;33;20432;-74
2022/04/13 21:42:33;;;;;;;10.20;5.70;;;;;;;14.04;66.98;100746.75;8602691;33;21092;-73
2022/04/13 21:47:36;;;;;;;9.27;6.05;;;;;;;14.14;68.30;100741.38;8602397;33;20636;-74
2022/04/13 21:52:39;;;;;;;10.85;6.10;;;;;;;14.16;68.36;100752.91;8603357;33;20179;-73
2022/04/13 21:57:43;;;;;;;9.20;5.70;;;;;;;14.24;67.29;100754.91;8604906;33;20608;-73
2022/04/13 22:02:46;;;;;;;10.18;5.38;;;;;;;14.26;66.88;100756.47;8603141;33;21311;-73
2022/04/13 22:07:54;;;;;;;9.55;5.45;;;;;;;14.11;67.83;100765.94;8601614;33;20406;-73
2022/04/13 22:12:59;;;;;;;8.77;4.72;;;;;;;14.04;67.98;100776.47;8604010;33;20419;-73
2022/04/13 22:18:03;;;;;;;9.68;5.18;;;;;;;13.85;68.30;100779.97;8599896;33;20136;-73
2022/04/13 22:23:06;;;;;;;8.40;5.55;;;;;;;13.65;71.20;100789.78;8575478;33;20210;-74
2022/04/13 22:28:11;;;;;;;9.70;5.75;;;;;;;13.51;74.46;100787.44;8617265;33;21848;-74
2022/04/13 22:33:14;;;;;;;9.35;5.75;;;;;;;13.23;77.88;100778.16;8618915;33;21063;-74
2022/04/13 22:38:17;;;;;;;14.00;5.72;;;;;;;13.11;80.24;100787.28;8605871;33;20399;-73
2022/04/13 22:43:22;;;;;;;10.88;5.53;;;;;;;13.01;80.25;100781.84;8602573;33;20459;-74
2022/04/13 22:48:25;;;;;;;10.13;5.38;;;;;;;12.95;80.87;100775.13;8599759;33;20193;-73
2022/04/13 22:53:28;;;;;;;10.13;6.18;;;;;;;12.89;80.71;100759.50;8600985;33;20467;-73
2022/04/13 22:58:33;;;;;;;10.18;6.13;;;;;;;12.91;80.93;100775.50;8603913;33;20440;-73
2022/04/13 23:03:36;;;;;;;19.35;5.82;;;;;;;12.95;80.32;100772.44;8604454;33;20245;-74
2022/04/13 23:08:39;;;;;;;9.02;6.03;;;;;;;13.08;79.76;100768.69;8604915;33;20691;-74
2022/04/13 23:13:43;;;;;;;8.63;5.63;;;;;;;13.03;78.84;100769.94;8605832;33;21340;-73
2022/04/13 23:18:46;;;;;;;8.68;5.85;;;;;;;12.98;78.25;100771.31;8602364;33;21144;-75
2022/04/13 23:23:50;;;;;;;9.20;5.50;;;;;;;12.94;76.97;100783.34;8603861;33;20409;-74
2022/04/13 23:28:54;;;;;;;5.57;4.30;;;;;;;12.96;77.02;100797.56;8600078;33;20254;-74